sensor_id;sensor_type;location;lat;lon;timestamp;P1;durP1;ratioP1;P2;durP2;ratioP2
35562;SDS011;21665;40.108;18.302;2022-08-01T05:21:25;16.35;;;4.25;;
35562;SDS011;21665;40.108;18.302;2022-08-01T05:23:52;11.68;;;4.32;;
35562;SDS011;21665;40.108;18.302;2022-08-01T05:26:18;8.57;;;3.60;;
35562;SDS011;21665;40.108;18.302;2022-08-01T05:28:44;11.95;;;4.53;;
35562;SDS011;21665;40.108;18.302;2022-08-01T05:31:11;14.18;;;4.40;;
35562;SDS011;21665;40.108;18.302;2022-08-01T05:33:38;9.57;;;4.10;;
35562;SDS011;21665;40.108;18.302;2022-08-01T05:36:04;9.32;;;3.63;;
35562;SDS011;21665;40.108;18.302;2022-08-01T05:38:31;14.07;;;4.97;;
35562;SDS011;21665;40.108;18.302;2022-08-01T05:40:58;10.63;;;4.95;;
35562;SDS011;21665;40.108;18.302;2022-08-01T05:43:27;7.68;;;4.55;;
35562;SDS011;21665;40.108;18.302;2022-08-01T05:45:54;9.57;;;4.88;;
35562;SDS011;21665;40.108;18.302;2022-08-01T05:48:20;7.80;;;5.25;;
35562;SDS011;21665;40.108;18.302;2022-08-01T05:50:47;10.88;;;5.22;;
35562;SDS011;21665;40.108;18.302;2022-08-01T05:53:13;10.10;;;5.30;;
35562;SDS011;21665;40.108;18.302;2022-08-01T05:55:40;10.15;;;4.68;;
35562;SDS011;21665;40.108;18.302;2022-08-01T05:58:06;8.35;;;5.43;;
35562;SDS011;21665;40.108;18.302;2022-08-01T06:00:34;11.70;;;5.30;;
35562;SDS011;21665;40.108;18.302;2022-08-01T06:03:01;9.23;;;5.35;;
35562;SDS011;21665;40.108;18.302;2022-08-01T06:05:28;9.20;;;5.20;;
35562;SDS011;21665;40.108;18.302;2022-08-01T06:07:54;10.05;;;4.78;;
35562;SDS011;21665;40.108;18.302;2022-08-01T06:10:21;9.43;;;5.40;;
35562;SDS011;21665;40.108;18.302;2022-08-01T06:12:50;9.77;;;5.43;;
35562;SDS011;21665;40.108;18.302;2022-08-01T06:15:17;7.50;;;4.95;;
35562;SDS011;21665;40.108;18.302;2022-08-01T06:17:43;6.93;;;5.40;;
35562;SDS011;21665;40.108;18.302;2022-08-01T06:20:10;14.52;;;5.53;;
35562;SDS011;21665;40.108;18.302;2022-08-01T06:22:37;10.50;;;5.35;;
35562;SDS011;21665;40.108;18.302;2022-08-01T06:27:53;7.78;;;5.35;;
35562;SDS011;21665;40.108;18.302;2022-08-01T06:33:28;10.80;;;5.70;;
35562;SDS011;21665;40.108;18.302;2022-08-01T06:35:54;9.77;;;5.65;;
35562;SDS011;21665;40.108;18.302;2022-08-01T06:38:24;9.18;;;6.13;;
35562;SDS011;21665;40.108;18.302;2022-08-01T06:40:50;9.75;;;6.78;;
35562;SDS011;21665;40.108;18.302;2022-08-01T06:43:17;11.98;;;7.00;;
35562;SDS011;21665;40.108;18.302;2022-08-01T06:45:48;8.98;;;6.68;;
35562;SDS011;21665;40.108;18.302;2022-08-01T06:48:33;9.70;;;6.93;;
35562;SDS011;21665;40.108;18.302;2022-08-01T06:51:05;9.82;;;8.10;;
35562;SDS011;21665;40.108;18.302;2022-08-01T06:53:35;10.40;;;7.28;;
35562;SDS011;21665;40.108;18.302;2022-08-01T06:56:03;11.60;;;7.63;;
35562;SDS011;21665;40.108;18.302;2022-08-01T06:58:31;9.65;;;7.00;;
35562;SDS011;21665;40.108;18.302;2022-08-01T07:03:45;10.73;;;7.25;;
35562;SDS011;21665;40.108;18.302;2022-08-01T07:06:18;11.38;;;7.57;;
35562;SDS011;21665;40.108;18.302;2022-08-01T07:08:46;7.45;;;6.43;;
35562;SDS011;21665;40.108;18.302;2022-08-01T07:11:13;12.50;;;6.40;;
35562;SDS011;21665;40.108;18.302;2022-08-01T07:13:39;8.63;;;6.72;;
35562;SDS011;21665;40.108;18.302;2022-08-01T07:16:06;13.30;;;7.38;;
35562;SDS011;21665;40.108;18.302;2022-08-01T07:18:45;16.77;;;6.65;;
35562;SDS011;21665;40.108;18.302;2022-08-01T07:21:18;7.80;;;6.32;;
35562;SDS011;21665;40.108;18.302;2022-08-01T07:23:44;11.93;;;6.95;;
35562;SDS011;21665;40.108;18.302;2022-08-01T07:26:11;11.68;;;6.38;;
35562;SDS011;21665;40.108;18.302;2022-08-01T07:28:42;13.18;;;6.80;;
35562;SDS011;21665;40.108;18.302;2022-08-01T07:31:09;7.70;;;6.55;;
35562;SDS011;21665;40.108;18.302;2022-08-01T07:33:37;11.98;;;7.15;;
35562;SDS011;21665;40.108;18.302;2022-08-01T07:39:06;6.50;;;5.88;;
35562;SDS011;21665;40.108;18.302;2022-08-01T07:41:33;12.88;;;6.38;;
35562;SDS011;21665;40.108;18.302;2022-08-01T07:43:59;12.25;;;7.20;;
35562;SDS011;21665;40.108;18.302;2022-08-01T07:46:26;12.52;;;6.90;;
35562;SDS011;21665;40.108;18.302;2022-08-01T07:48:52;8.95;;;6.07;;
35562;SDS011;21665;40.108;18.302;2022-08-01T07:51:19;9.02;;;6.55;;
35562;SDS011;21665;40.108;18.302;2022-08-01T07:53:45;8.35;;;6.88;;
35562;SDS011;21665;40.108;18.302;2022-08-01T07:56:15;10.98;;;7.40;;
35562;SDS011;21665;40.108;18.302;2022-08-01T07:58:41;10.75;;;6.53;;
35562;SDS011;21665;40.108;18.302;2022-08-01T08:01:08;7.85;;;6.53;;
35562;SDS011;21665;40.108;18.302;2022-08-01T08:03:34;16.92;;;7.18;;
35562;SDS011;21665;40.108;18.302;2022-08-01T08:06:01;11.63;;;7.03;;
35562;SDS011;21665;40.108;18.302;2022-08-01T08:08:31;8.52;;;7.72;;
35562;SDS011;21665;40.108;18.302;2022-08-01T08:13:42;11.45;;;9.07;;
35562;SDS011;21665;40.108;18.302;2022-08-01T08:16:17;10.63;;;8.80;;
35562;SDS011;21665;40.108;18.302;2022-08-01T08:18:46;10.13;;;9.00;;
35562;SDS011;21665;40.108;18.302;2022-08-01T08:21:13;9.50;;;8.63;;
35562;SDS011;21665;40.108;18.302;2022-08-01T08:23:39;10.70;;;8.60;;
35562;SDS011;21665;40.108;18.302;2022-08-01T08:26:24;9.40;;;8.50;;
35562;SDS011;21665;40.108;18.302;2022-08-01T08:28:58;9.98;;;8.73;;
35562;SDS011;21665;40.108;18.302;2022-08-01T08:31:24;10.65;;;9.00;;
35562;SDS011;21665;40.108;18.302;2022-08-01T08:33:51;9.55;;;8.82;;
35562;SDS011;21665;40.108;18.302;2022-08-01T08:36:17;10.30;;;9.55;;
35562;SDS011;21665;40.108;18.302;2022-08-01T08:38:44;10.05;;;9.05;;
35562;SDS011;21665;40.108;18.302;2022-08-01T08:41:11;10.48;;;9.27;;
35562;SDS011;21665;40.108;18.302;2022-08-01T08:43:39;12.40;;;9.05;;
35562;SDS011;21665;40.108;18.302;2022-08-01T08:46:05;11.38;;;9.70;;
35562;SDS011;21665;40.108;18.302;2022-08-01T08:48:34;15.27;;;9.43;;
35562;SDS011;21665;40.108;18.302;2022-08-01T08:51:06;11.43;;;10.20;;
35562;SDS011;21665;40.108;18.302;2022-08-01T08:53:37;11.52;;;10.43;;
35562;SDS011;21665;40.108;18.302;2022-08-01T08:56:16;10.80;;;9.73;;
35562;SDS011;21665;40.108;18.302;2022-08-01T08:58:47;11.13;;;10.10;;
35562;SDS011;21665;40.108;18.302;2022-08-01T09:04:52;11.02;;;10.05;;
35562;SDS011;21665;40.108;18.302;2022-08-01T09:07:30;10.90;;;10.10;;
35562;SDS011;21665;40.108;18.302;2022-08-01T09:19:56;12.13;;;11.00;;
35562;SDS011;21665;40.108;18.302;2022-08-01T09:22:30;11.55;;;10.65;;
35562;SDS011;21665;40.108;18.302;2022-08-01T09:30:55;12.20;;;11.38;;
35562;SDS011;21665;40.108;18.302;2022-08-01T09:34:02;12.15;;;11.25;;
35562;SDS011;21665;40.108;18.302;2022-08-01T09:36:51;12.18;;;11.32;;
35562;SDS011;21665;40.108;18.302;2022-08-01T09:39:23;15.57;;;11.80;;
35562;SDS011;21665;40.108;18.302;2022-08-01T09:41:59;12.10;;;11.10;;
35562;SDS011;21665;40.108;18.302;2022-08-01T09:47:43;12.83;;;11.67;;
35562;SDS011;21665;40.108;18.302;2022-08-01T09:50:26;12.93;;;11.70;;
35562;SDS011;21665;40.108;18.302;2022-08-01T09:53:11;11.45;;;10.13;;
35562;SDS011;21665;40.108;18.302;2022-08-01T09:55:39;10.35;;;9.50;;
35562;SDS011;21665;40.108;18.302;2022-08-01T09:58:06;12.25;;;11.18;;
35562;SDS011;21665;40.108;18.302;2022-08-01T10:00:37;12.75;;;11.68;;
35562;SDS011;21665;40.108;18.302;2022-08-01T10:03:22;12.23;;;11.20;;
35562;SDS011;21665;40.108;18.302;2022-08-01T10:05:55;13.55;;;11.02;;
35562;SDS011;21665;40.108;18.302;2022-08-01T10:08:27;12.38;;;11.38;;
35562;SDS011;21665;40.108;18.302;2022-08-01T10:11:11;12.80;;;11.73;;
35562;SDS011;21665;40.108;18.302;2022-08-01T10:13:41;12.85;;;11.77;;
35562;SDS011;21665;40.108;18.302;2022-08-01T10:16:09;12.30;;;11.50;;
35562;SDS011;21665;40.108;18.302;2022-08-01T10:18:38;12.75;;;11.90;;
35562;SDS011;21665;40.108;18.302;2022-08-01T10:21:08;12.00;;;11.00;;
35562;SDS011;21665;40.108;18.302;2022-08-01T10:23:36;12.32;;;11.32;;
35562;SDS011;21665;40.108;18.302;2022-08-01T10:26:05;14.15;;;12.57;;
35562;SDS011;21665;40.108;18.302;2022-08-01T10:28:41;12.85;;;11.65;;
35562;SDS011;21665;40.108;18.302;2022-08-01T10:31:14;12.80;;;11.82;;
35562;SDS011;21665;40.108;18.302;2022-08-01T10:33:48;12.07;;;10.98;;
35562;SDS011;21665;40.108;18.302;2022-08-01T10:36:23;12.98;;;11.85;;
35562;SDS011;21665;40.108;18.302;2022-08-01T10:42:06;12.43;;;11.48;;
35562;SDS011;21665;40.108;18.302;2022-08-01T10:44:48;12.45;;;11.65;;
35562;SDS011;21665;40.108;18.302;2022-08-01T10:47:42;12.80;;;11.90;;
35562;SDS011;21665;40.108;18.302;2022-08-01T10:50:46;13.32;;;12.25;;
35562;SDS011;21665;40.108;18.302;2022-08-01T10:53:37;13.32;;;12.45;;
35562;SDS011;21665;40.108;18.302;2022-08-01T10:56:13;13.10;;;12.20;;
35562;SDS011;21665;40.108;18.302;2022-08-01T10:58:43;13.50;;;12.48;;
35562;SDS011;21665;40.108;18.302;2022-08-01T22:47:48;10.45;;;2.90;;
35562;SDS011;21665;40.108;18.302;2022-08-01T22:58:07;10.77;;;2.60;;
35562;SDS011;21665;40.108;18.302;2022-08-01T23:01:42;7.88;;;3.67;;
35562;SDS011;21665;40.108;18.302;2022-08-01T23:04:25;10.20;;;3.22;;
35562;SDS011;21665;40.108;18.302;2022-08-01T23:06:57;10.25;;;3.03;;
35562;SDS011;21665;40.108;18.302;2022-08-01T23:09:28;14.70;;;3.40;;
35562;SDS011;21665;40.108;18.302;2022-08-01T23:11:59;10.35;;;2.85;;
35562;SDS011;21665;40.108;18.302;2022-08-01T23:14:31;9.35;;;2.97;;
35562;SDS011;21665;40.108;18.302;2022-08-01T23:16:58;10.52;;;2.95;;
35562;SDS011;21665;40.108;18.302;2022-08-01T23:19:29;10.73;;;3.25;;
35562;SDS011;21665;40.108;18.302;2022-08-01T23:22:02;10.10;;;3.25;;
35562;SDS011;21665;40.108;18.302;2022-08-01T23:24:30;13.40;;;3.55;;
35562;SDS011;21665;40.108;18.302;2022-08-01T23:27:01;10.63;;;3.40;;
35562;SDS011;21665;40.108;18.302;2022-08-01T23:29:47;13.73;;;3.58;;
35562;SDS011;21665;40.108;18.302;2022-08-01T23:32:15;17.17;;;9.73;;
35562;SDS011;21665;40.108;18.302;2022-08-01T23:34:44;9.32;;;3.45;;
35562;SDS011;21665;40.108;18.302;2022-08-01T23:37:13;12.43;;;3.13;;
35562;SDS011;21665;40.108;18.302;2022-08-01T23:39:42;13.40;;;3.45;;
35562;SDS011;21665;40.108;18.302;2022-08-01T23:42:09;11.85;;;3.30;;
35562;SDS011;21665;40.108;18.302;2022-08-01T23:44:37;12.23;;;2.97;;
35562;SDS011;21665;40.108;18.302;2022-08-01T23:47:06;11.57;;;2.60;;
35562;SDS011;21665;40.108;18.302;2022-08-01T23:49:34;14.30;;;3.20;;
35562;SDS011;21665;40.108;18.302;2022-08-01T23:52:02;14.63;;;3.55;;
35562;SDS011;21665;40.108;18.302;2022-08-01T23:54:30;14.30;;;3.60;;
35562;SDS011;21665;40.108;18.302;2022-08-01T23:56:56;13.32;;;3.13;;
35562;SDS011;21665;40.108;18.302;2022-08-01T23:59:24;12.38;;;3.42;;
